createdAt,value
2022-10-18T00:01:19.118Z,97567.34
2022-10-18T00:03:45.843Z,97563.38
2022-10-18T00:06:22.678Z,97556.97
2022-10-18T00:08:49.321Z,97669.13
2022-10-18T00:11:15.894Z,97618.47
2022-10-18T00:13:42.547Z,97633.34
2022-10-18T00:16:15.837Z,97643.78
2022-10-18T00:18:42.841Z,97633.28
2022-10-18T00:21:14.714Z,97467.88
2022-10-18T00:23:41.473Z,97676.81
2022-10-18T00:26:12.915Z,97619.09
2022-10-18T00:28:39.750Z,97552.88
2022-10-18T00:31:20.047Z,97566.38
2022-10-18T00:33:47.915Z,97644.97
2022-10-18T00:36:14.964Z,97535.72
2022-10-18T00:38:41.672Z,97576.94
2022-10-18T00:41:09.678Z,97456.75
2022-10-18T00:43:54.908Z,97691.72
2022-10-18T00:46:21.853Z,97508.16
2022-10-18T00:48:48.584Z,97447.25
2022-10-18T00:51:16.451Z,97660.91
2022-10-18T00:53:43.131Z,97432.63
2022-10-18T00:56:09.704Z,97491.50
2022-10-18T00:58:36.266Z,97477.94
2022-10-18T01:01:02.851Z,97676.44
2022-10-18T01:03:29.550Z,97503.19
2022-10-18T01:05:56.111Z,97629.00
2022-10-18T01:08:43.860Z,97476.09
2022-10-18T01:11:28.522Z,97602.00
2022-10-18T01:14:04.078Z,97663.31
2022-10-18T01:16:44.251Z,97570.91
2022-10-18T01:19:32.459Z,97666.81
2022-10-18T01:22:05.944Z,97584.44
2022-10-18T01:27:59.434Z,97584.59
2022-10-18T01:30:38.723Z,97671.50
2022-10-18T01:33:20.696Z,97572.41
2022-10-18T01:36:09.967Z,97640.28
2022-10-18T01:38:36.539Z,97585.94
2022-10-18T01:41:03.199Z,97269.81
2022-10-18T01:43:29.783Z,97575.97
2022-10-18T01:45:56.544Z,97455.19
2022-10-18T01:48:23.450Z,97464.13
2022-10-18T01:50:50.097Z,97614.75
2022-10-18T01:53:24.634Z,97519.59
2022-10-18T01:55:56.098Z,97556.59
2022-10-18T01:58:47.002Z,97560.31
2022-10-18T02:01:20.280Z,97442.81
2022-10-18T02:03:47.466Z,97441.03
2022-10-18T02:06:20.923Z,97494.69
2022-10-18T02:08:52.092Z,97644.44
2022-10-18T02:11:18.799Z,97551.25
2022-10-18T02:13:53.305Z,97600.84
2022-10-18T02:16:22.688Z,97557.81
2022-10-18T02:19:46.481Z,97649.16
2022-10-18T02:22:13.383Z,97614.84
2022-10-18T02:24:43.348Z,97564.53
2022-10-18T02:27:10.032Z,97449.06
2022-10-18T02:29:36.700Z,97389.81
2022-10-18T02:32:11.577Z,97547.44
2022-10-18T02:34:57.692Z,97658.69
2022-10-18T02:37:24.569Z,97589.47
2022-10-18T02:39:51.192Z,97559.81
2022-10-18T02:42:17.791Z,97540.44
2022-10-18T02:44:44.385Z,97566.78
2022-10-18T02:47:11.305Z,97330.41
2022-10-18T02:49:37.919Z,97569.00
2022-10-18T02:52:04.606Z,97381.38
2022-10-18T02:54:31.269Z,97537.34
2022-10-18T02:56:57.923Z,97406.78
2022-10-18T02:59:24.559Z,97529.97
2022-10-18T03:01:51.245Z,97530.13
2022-10-18T03:04:18.211Z,97547.06
2022-10-18T03:07:09.623Z,97655.22
2022-10-18T03:09:36.373Z,97663.34
2022-10-18T03:12:03.121Z,97527.13
2022-10-18T03:14:29.759Z,97536.94
2022-10-18T03:16:56.356Z,97623.81
2022-10-18T03:19:23.020Z,97409.00
2022-10-18T03:21:49.673Z,97481.03
2022-10-18T03:24:16.335Z,97415.56
2022-10-18T03:26:43.060Z,97379.50
2022-10-18T03:29:10.553Z,97424.31
2022-10-18T03:31:37.219Z,97586.63
2022-10-18T03:34:03.800Z,97605.50
2022-10-18T03:36:30.386Z,97513.19
2022-10-18T03:38:56.958Z,97603.63
2022-10-18T03:41:23.595Z,97542.72
2022-10-18T03:43:50.161Z,97557.66
2022-10-18T03:46:16.786Z,97547.66
2022-10-18T03:48:43.350Z,97533.59
2022-10-18T03:51:09.973Z,97463.94
2022-10-18T03:53:36.533Z,97562.72
2022-10-18T03:56:03.159Z,97581.47
2022-10-18T03:58:29.861Z,97568.75
2022-10-18T04:00:56.497Z,97594.44
2022-10-18T04:03:23.344Z,97579.84
2022-10-18T04:05:50.032Z,97479.84
2022-10-18T04:08:16.719Z,97605.41
2022-10-18T04:10:44.422Z,97463.94
2022-10-18T04:13:11.099Z,97444.00
2022-10-18T04:15:37.687Z,97458.22
2022-10-18T04:18:04.334Z,97354.06
2022-10-18T04:20:30.903Z,97367.44
2022-10-18T04:22:58.129Z,97552.28
2022-10-18T04:25:25.117Z,97592.81
2022-10-18T04:27:51.725Z,97533.31
2022-10-18T04:30:18.291Z,97435.38
2022-10-18T04:32:44.855Z,97549.97
2022-10-18T04:35:11.684Z,97311.22
2022-10-18T04:37:38.273Z,97591.19
2022-10-18T04:40:05.362Z,97288.16
2022-10-18T04:42:31.954Z,97353.91
2022-10-18T04:44:58.571Z,97517.69
2022-10-18T04:47:25.164Z,97545.06
2022-10-18T04:49:52.142Z,97490.88
2022-10-18T04:52:18.722Z,97541.38
2022-10-18T04:54:45.305Z,97388.56
2022-10-18T04:57:11.944Z,97370.00
2022-10-18T04:59:38.533Z,97593.63
2022-10-18T05:02:05.202Z,97553.53
2022-10-18T05:04:31.926Z,97487.03
2022-10-18T05:06:58.516Z,97380.66
2022-10-18T05:09:25.195Z,97539.97
2022-10-18T05:11:51.880Z,97579.91
2022-10-18T05:14:18.559Z,97646.63
2022-10-18T05:16:45.110Z,97642.31
2022-10-18T05:19:11.698Z,97568.41
2022-10-18T05:21:38.324Z,97621.25
2022-10-18T05:24:05.104Z,97594.41
2022-10-18T05:26:31.957Z,97538.41
2022-10-18T05:28:58.575Z,97603.59
2022-10-18T05:31:25.376Z,97639.19
2022-10-18T05:33:52.050Z,97650.81
2022-10-18T05:36:18.616Z,97618.78
2022-10-18T05:38:45.727Z,97573.47
2022-10-18T05:41:12.530Z,97578.44
2022-10-18T05:43:39.828Z,97526.56
2022-10-18T05:46:13.666Z,97543.28
2022-10-18T05:48:41.939Z,97547.09
2022-10-18T05:51:08.511Z,97536.97
2022-10-18T05:53:37.491Z,97565.69
2022-10-18T05:56:05.773Z,97595.13
2022-10-18T05:58:32.509Z,97493.84
2022-10-18T06:01:00.966Z,97626.03
2022-10-18T06:03:27.871Z,97385.34
2022-10-18T06:06:02.228Z,97532.28
2022-10-18T06:08:28.972Z,97624.78
2022-10-18T06:10:55.696Z,97557.16
2022-10-18T06:13:22.432Z,97478.78
2022-10-18T06:15:49.131Z,97546.88
2022-10-18T06:18:15.773Z,97507.47
2022-10-18T06:20:42.546Z,97582.59
2022-10-18T06:23:09.181Z,97624.09
2022-10-18T06:25:35.808Z,97610.16
2022-10-18T06:28:05.991Z,97546.63
2022-10-18T06:30:35.090Z,97586.47
2022-10-18T06:33:01.915Z,97647.41
2022-10-18T06:35:28.956Z,97578.81
2022-10-18T06:37:55.614Z,97598.00
2022-10-18T06:40:22.277Z,97410.16
2022-10-18T06:43:00.009Z,97502.22
2022-10-18T06:45:33.435Z,97531.09
2022-10-18T06:48:00.011Z,97537.78
2022-10-18T06:50:26.587Z,97519.19
2022-10-18T06:52:53.161Z,97571.19
2022-10-18T06:55:19.737Z,97567.91
2022-10-18T06:57:46.528Z,97474.63
2022-10-18T07:00:14.036Z,97628.94
2022-10-18T07:02:41.382Z,97509.63
2022-10-18T07:05:09.032Z,97415.13
2022-10-18T07:07:35.870Z,97559.66
2022-10-18T07:10:02.704Z,97588.31
2022-10-18T07:12:29.438Z,97556.59
2022-10-18T07:14:56.051Z,97574.03
2022-10-18T07:17:22.638Z,97579.78
2022-10-18T07:19:49.246Z,97622.56
2022-10-18T07:22:15.855Z,97568.56
2022-10-18T07:24:42.436Z,97540.91
2022-10-18T07:27:09.045Z,97541.06
2022-10-18T07:29:38.317Z,97472.81
2022-10-18T07:32:05.442Z,97522.94
2022-10-18T07:34:32.107Z,97568.81
2022-10-18T07:36:58.737Z,97597.84
2022-10-18T07:39:25.566Z,97519.88
2022-10-18T07:41:52.252Z,97394.47
2022-10-18T07:44:18.906Z,97399.84
2022-10-18T07:46:45.480Z,97578.91
2022-10-18T07:49:12.076Z,97500.31
2022-10-18T07:51:38.716Z,97510.50
2022-10-18T07:54:05.318Z,97587.72
2022-10-18T07:56:31.949Z,97481.44
2022-10-18T07:58:58.582Z,97534.13
2022-10-18T08:01:25.658Z,97564.06
2022-10-18T08:03:53.636Z,97544.31
2022-10-18T08:06:21.134Z,97489.59
2022-10-18T08:08:47.803Z,97451.53
2022-10-18T08:11:21.716Z,97563.75
2022-10-18T08:13:48.429Z,97481.03
2022-10-18T08:16:16.820Z,97591.44
2022-10-18T08:18:43.513Z,97586.78
2022-10-18T08:21:11.260Z,97513.41
2022-10-18T08:23:38.002Z,97461.84
2022-10-18T08:26:06.062Z,97529.47
2022-10-18T08:28:32.779Z,97446.94
2022-10-18T08:31:06.101Z,97541.09
2022-10-18T08:33:33.418Z,97442.66
2022-10-18T08:36:01.241Z,97583.56
2022-10-18T08:38:33.970Z,97501.00
2022-10-18T08:41:19.774Z,97512.94
2022-10-18T08:43:55.256Z,97570.25
2022-10-18T08:46:21.939Z,97393.00
2022-10-18T08:48:49.611Z,97457.63
2022-10-18T08:51:39.114Z,97564.00
2022-10-18T08:54:29.979Z,97572.69
2022-10-18T08:57:04.608Z,97378.56
2022-10-18T08:59:36.883Z,97566.56
2022-10-18T09:02:25.048Z,97573.19
2022-10-18T09:04:58.674Z,97566.53
2022-10-18T09:07:47.858Z,97563.94
2022-10-18T09:10:14.495Z,97566.28
2022-10-18T09:12:50.183Z,97570.44
2022-10-18T09:15:48.244Z,97507.03
2022-10-18T09:18:27.911Z,97554.28
2022-10-18T09:20:58.280Z,97480.97
2022-10-18T09:23:47.413Z,97457.16
2022-10-18T09:26:21.176Z,97460.63
2022-10-18T09:29:24.013Z,97562.38
2022-10-18T09:31:53.607Z,97546.75
2022-10-18T09:38:20.400Z,97369.31
2022-10-18T09:40:51.933Z,97451.31
2022-10-18T09:43:56.801Z,97392.78
2022-10-18T09:46:25.300Z,97176.41
2022-10-18T09:48:59.186Z,97270.38
2022-10-18T09:51:31.430Z,97543.97
2022-10-18T09:54:28.278Z,97539.97
2022-10-18T09:57:08.496Z,97465.84
2022-10-18T09:59:48.314Z,97361.31
2022-10-18T10:02:19.841Z,97360.56
2022-10-18T10:04:46.683Z,97200.84
2022-10-18T10:07:16.611Z,97460.03
2022-10-18T10:09:48.846Z,97520.44
2022-10-18T10:12:30.537Z,97551.78
2022-10-18T10:15:12.830Z,97496.38
2022-10-18T10:17:39.405Z,97478.91
2022-10-18T10:20:20.364Z,97327.34
2022-10-18T10:22:47.911Z,97322.84
2022-10-18T10:25:21.357Z,97432.72
2022-10-18T10:27:48.008Z,97354.38
2022-10-18T10:30:27.722Z,97521.13
2022-10-18T10:32:54.763Z,97510.91
2022-10-18T10:35:41.287Z,97482.59
2022-10-18T10:38:22.966Z,97342.75
2022-10-18T10:44:33.877Z,97437.75
2022-10-18T10:47:00.500Z,97355.50
2022-10-18T10:49:46.891Z,97253.91
2022-10-18T10:52:33.718Z,97298.28
2022-10-18T10:55:06.238Z,97376.84
2022-10-18T10:57:45.033Z,97474.47
2022-10-18T11:00:41.959Z,97478.63
2022-10-18T11:03:28.675Z,97249.00
2022-10-18T11:05:57.849Z,97196.56
2022-10-18T11:08:26.609Z,97415.88
2022-10-18T11:11:18.083Z,97436.50
2022-10-18T11:13:53.418Z,97447.69
2022-10-18T11:16:42.698Z,97370.28
2022-10-18T11:19:20.045Z,97340.88
2022-10-18T11:21:46.617Z,97406.78
2022-10-18T11:24:15.514Z,97233.94
2022-10-18T11:26:53.482Z,97442.75
2022-10-18T11:29:29.363Z,97440.91
2022-10-18T11:32:23.868Z,97436.88
2022-10-18T11:35:18.208Z,97438.13
2022-10-18T11:37:59.654Z,97439.72
2022-10-18T11:40:35.382Z,97445.22
2022-10-18T11:43:12.423Z,97440.31
2022-10-18T11:45:46.581Z,97259.38
2022-10-18T11:48:38.124Z,97425.13
2022-10-18T11:51:16.613Z,97336.84
2022-10-18T11:53:50.964Z,97428.97
2022-10-18T11:56:39.290Z,97242.50
2022-10-18T11:59:28.862Z,97409.91
2022-10-18T12:02:33.118Z,97418.78
2022-10-18T12:08:05.488Z,97328.25
2022-10-18T12:10:45.787Z,97333.34
2022-10-18T12:13:42.347Z,97352.66
2022-10-18T12:16:09.479Z,97217.50
2022-10-18T12:18:36.758Z,97361.41
2022-10-18T12:21:03.470Z,97206.91
2022-10-18T12:23:30.127Z,97399.63
2022-10-18T12:26:01.119Z,97390.03
2022-10-18T12:28:43.062Z,97389.91
2022-10-18T12:31:15.639Z,97381.41
2022-10-18T12:37:59.713Z,97377.75
2022-10-18T12:40:39.170Z,97368.41
2022-10-18T12:43:10.242Z,97220.28
2022-10-18T12:45:48.350Z,97237.91
2022-10-18T12:48:53.427Z,97348.66
2022-10-18T12:51:23.143Z,97226.47
2022-10-18T12:54:01.872Z,97240.72
2022-10-18T12:56:28.436Z,97340.59
2022-10-18T12:59:19.716Z,97330.88
2022-10-18T13:01:52.961Z,97328.03
2022-10-18T13:04:28.467Z,97328.19
2022-10-18T13:07:00.959Z,97327.97
2022-10-18T13:09:28.992Z,97271.59
2022-10-18T13:12:22.278Z,97263.19
2022-10-18T13:15:25.849Z,97328.09
2022-10-18T13:18:18.417Z,97320.59
2022-10-18T13:20:56.517Z,97127.94
2022-10-18T13:23:53.679Z,97311.66
2022-10-18T13:26:25.216Z,97310.78
2022-10-18T13:29:10.129Z,97321.50
2022-10-18T13:31:46.061Z,97302.56
2022-10-18T13:34:24.697Z,97309.31
2022-10-18T13:37:05.272Z,97183.53
2022-10-18T13:39:32.178Z,97288.31
2022-10-18T13:41:58.648Z,97316.69
2022-10-18T13:44:30.614Z,97175.75
2022-10-18T13:46:57.114Z,97318.84
2022-10-18T13:49:47.798Z,97156.53
2022-10-18T13:52:41.593Z,97317.31
2022-10-18T13:55:23.411Z,97308.19
2022-10-18T13:57:59.072Z,97314.25
2022-10-18T14:00:48.815Z,97309.16
2022-10-18T14:03:55.781Z,97316.44
2022-10-18T14:06:22.648Z,97313.50
2022-10-18T14:09:09.491Z,97313.25
2022-10-18T14:12:01.437Z,97315.72
2022-10-18T14:14:31.768Z,97149.81
2022-10-18T14:17:29.503Z,97315.28
2022-10-18T14:20:21.157Z,97242.53
2022-10-18T14:23:17.621Z,97308.81
2022-10-18T14:25:44.251Z,97162.72
2022-10-18T14:28:16.811Z,97306.13
2022-10-18T14:31:02.959Z,97303.09
2022-10-18T14:33:37.206Z,97190.75
2022-10-18T14:36:15.854Z,97308.47
2022-10-18T14:38:56.407Z,97172.00
2022-10-18T14:41:23.014Z,97300.28
2022-10-18T14:43:50.013Z,97209.34
2022-10-18T14:46:16.464Z,97293.53
2022-10-18T14:48:43.180Z,97180.31
2022-10-18T14:51:10.224Z,97066.34
2022-10-18T14:53:38.601Z,97062.72
2022-10-18T14:56:05.628Z,97184.25
2022-10-18T14:58:32.321Z,97221.44
2022-10-18T15:00:59.140Z,97189.88
2022-10-18T15:03:26.369Z,97248.00
2022-10-18T15:05:59.562Z,97139.72
2022-10-18T15:08:58.500Z,97227.78
2022-10-18T15:11:25.607Z,97116.03
2022-10-18T15:13:54.910Z,97145.44
2022-10-18T15:16:24.031Z,97059.66
2022-10-18T15:19:00.816Z,97286.88
2022-10-18T15:21:27.536Z,97249.44
2022-10-18T15:23:55.169Z,97188.84
2022-10-18T15:26:26.898Z,97188.47
2022-10-18T15:28:54.286Z,97151.03
2022-10-18T15:31:35.063Z,97163.25
2022-10-18T15:34:18.802Z,97216.13
2022-10-18T15:36:45.793Z,97105.25
2022-10-18T15:39:18.089Z,97219.56
2022-10-18T15:41:50.690Z,97271.00
2022-10-18T15:44:32.196Z,97278.72
2022-10-18T15:47:16.117Z,97284.41
2022-10-18T15:49:52.018Z,97140.66
2022-10-18T15:52:21.750Z,97276.44
2022-10-18T15:57:20.496Z,97098.53
2022-10-18T15:59:54.116Z,97282.81
2022-10-18T16:02:20.927Z,97215.97
2022-10-18T16:04:47.972Z,97140.97
2022-10-18T16:07:14.573Z,97197.75
2022-10-18T16:09:41.183Z,97186.53
2022-10-18T16:12:07.851Z,97225.91
2022-10-18T16:14:35.180Z,97296.97
2022-10-18T16:17:04.184Z,97102.34
2022-10-18T16:19:31.312Z,97211.84
2022-10-18T16:22:01.122Z,97186.16
2022-10-18T16:24:30.440Z,97294.97
2022-10-18T16:26:57.101Z,97194.06
2022-10-18T16:29:28.755Z,97227.84
2022-10-18T16:31:58.288Z,97231.78
2022-10-18T16:34:27.093Z,97127.47
2022-10-18T16:36:53.993Z,97185.00
2022-10-18T16:39:20.995Z,97265.28
2022-10-18T16:41:47.805Z,97239.16
2022-10-18T16:44:15.292Z,97243.09
2022-10-18T16:46:42.001Z,97219.47
2022-10-18T16:51:46.807Z,97219.44
2022-10-18T16:54:13.616Z,97207.38
2022-10-18T16:56:40.262Z,97200.19
2022-10-18T16:59:06.846Z,97123.09
2022-10-18T17:01:33.497Z,97036.19
2022-10-18T17:04:00.220Z,97143.00
2022-10-18T17:06:30.593Z,97166.47
2022-10-18T17:08:57.210Z,97247.66
2022-10-18T17:11:26.823Z,97298.94
2022-10-18T17:13:53.580Z,97066.50
2022-10-18T17:19:07.570Z,97193.88
2022-10-18T17:21:34.686Z,97033.94
2022-10-18T17:24:03.610Z,97285.09
2022-10-18T17:26:30.706Z,97116.44
2022-10-18T17:29:03.119Z,97211.69
2022-10-18T17:31:30.213Z,97292.78
2022-10-18T17:33:58.479Z,97032.16
2022-10-18T17:36:25.160Z,97206.97
2022-10-18T17:38:52.774Z,97218.38
2022-10-18T17:41:19.392Z,97227.31
2022-10-18T17:43:46.117Z,97089.66
2022-10-18T17:46:13.339Z,97139.44
2022-10-18T17:48:40.920Z,97142.38
2022-10-18T17:51:11.828Z,97298.16
2022-10-18T17:53:38.666Z,97236.31
2022-10-18T17:56:05.568Z,97132.41
2022-10-18T17:58:32.519Z,97055.97
2022-10-18T18:01:11.950Z,97158.19
2022-10-18T18:03:38.639Z,97122.94
2022-10-18T18:06:16.561Z,97182.38
2022-10-18T18:08:43.593Z,97295.63
2022-10-18T18:11:10.204Z,97202.09
2022-10-18T18:13:37.281Z,97021.88
2022-10-18T18:16:20.989Z,97286.28
2022-10-18T18:18:49.274Z,97198.34
2022-10-18T18:21:16.156Z,97055.94
2022-10-18T18:23:42.997Z,97081.53
2022-10-18T18:26:09.661Z,97204.06
2022-10-18T18:28:36.532Z,97152.16
2022-10-18T18:31:12.936Z,97197.38
2022-10-18T18:33:39.581Z,97098.97
2022-10-18T18:36:06.989Z,97172.72
2022-10-18T18:38:34.343Z,97304.78
2022-10-18T18:41:05.893Z,97259.72
2022-10-18T18:43:32.526Z,97247.16
2022-10-18T18:45:59.287Z,97177.28
2022-10-18T18:48:27.038Z,97097.03
2022-10-18T18:50:53.736Z,97186.72
2022-10-18T18:53:20.388Z,97131.75
2022-10-18T18:55:48.475Z,97096.72
2022-10-18T18:58:15.095Z,97188.06
2022-10-18T19:00:44.448Z,97174.50
2022-10-18T19:03:11.481Z,97130.31
2022-10-18T19:05:38.113Z,97209.09
2022-10-18T19:08:04.848Z,97066.06
2022-10-18T19:10:31.444Z,97113.16
2022-10-18T19:12:58.286Z,97137.50
2022-10-18T19:15:27.268Z,97124.41
2022-10-18T19:17:55.356Z,97077.94
2022-10-18T19:20:22.017Z,97218.75
2022-10-18T19:22:48.624Z,97203.56
2022-10-18T19:25:15.228Z,97068.81
2022-10-18T19:27:41.845Z,97186.59
2022-10-18T19:30:09.144Z,97034.13
2022-10-18T19:32:35.799Z,97224.63
2022-10-18T19:35:02.397Z,97129.34
2022-10-18T19:37:29.051Z,97208.94
2022-10-18T19:39:55.703Z,97137.47
2022-10-18T19:42:26.165Z,97280.06
2022-10-18T19:44:54.037Z,97354.91
2022-10-18T19:47:20.870Z,97321.75
2022-10-18T19:49:48.157Z,97321.94
2022-10-18T19:52:14.905Z,97188.13
2022-10-18T19:54:41.644Z,97327.13
2022-10-18T19:57:08.300Z,97207.22
2022-10-18T19:59:36.076Z,97273.31
2022-10-18T20:02:04.744Z,97295.97
2022-10-18T20:04:34.433Z,97232.28
2022-10-18T20:07:02.775Z,97250.03
2022-10-18T20:09:29.788Z,97261.00
2022-10-18T20:11:56.393Z,97259.03
2022-10-18T20:14:23.234Z,97105.81
2022-10-18T20:16:49.883Z,97190.34
2022-10-18T20:19:16.563Z,97225.41
2022-10-18T20:21:50.013Z,97353.28
2022-10-18T20:24:16.673Z,97196.78
2022-10-18T20:26:43.792Z,96984.63
2022-10-18T20:29:10.666Z,97072.44
2022-10-18T20:31:39.131Z,97189.84
2022-10-18T20:34:08.772Z,97174.13
2022-10-18T20:36:35.716Z,97155.63
2022-10-18T20:39:02.528Z,97286.81
2022-10-18T20:41:30.697Z,97250.53
2022-10-18T20:43:58.726Z,97229.38
2022-10-18T20:46:26.211Z,97197.66
2022-10-18T20:48:53.363Z,97242.31
2022-10-18T20:51:20.202Z,97223.84
2022-10-18T20:53:46.848Z,97199.34
2022-10-18T20:56:17.665Z,97307.03
2022-10-18T20:58:44.823Z,97202.22
2022-10-18T21:01:16.687Z,97275.47
2022-10-18T21:03:44.328Z,97256.38
2022-10-18T21:06:15.394Z,97214.84
2022-10-18T21:08:42.410Z,97145.44
2022-10-18T21:11:09.187Z,97227.88
2022-10-18T21:13:35.911Z,97218.34
2022-10-18T21:16:03.109Z,97141.88
2022-10-18T21:18:31.073Z,97128.84
2022-10-18T21:23:40.759Z,97272.69
2022-10-18T21:26:07.532Z,97202.44
2022-10-18T21:28:34.264Z,96969.69
2022-10-18T21:31:12.759Z,97299.72
2022-10-18T21:33:41.124Z,97134.19
2022-10-18T21:36:08.459Z,97205.88
2022-10-18T21:38:35.173Z,97295.75
2022-10-18T21:41:01.807Z,97207.25
2022-10-18T21:43:28.407Z,97290.28
2022-10-18T21:46:01.513Z,97314.97
2022-10-18T21:48:29.033Z,97193.19
2022-10-18T21:50:55.693Z,97192.25
2022-10-18T21:53:22.287Z,97159.66
2022-10-18T21:55:49.233Z,97010.59
2022-10-18T21:58:16.146Z,97157.94
2022-10-18T22:00:42.914Z,96893.13
2022-10-18T22:03:10.170Z,97076.59
2022-10-18T22:05:36.823Z,97177.88
2022-10-18T22:08:03.866Z,97117.25
2022-10-18T22:10:30.455Z,97233.75
2022-10-18T22:12:57.121Z,97101.00
2022-10-18T22:15:23.829Z,97053.41
2022-10-18T22:17:50.549Z,97144.00
2022-10-18T22:20:17.315Z,97136.03
2022-10-18T22:22:43.916Z,97254.34
2022-10-18T22:25:10.509Z,97286.56
2022-10-18T22:27:38.326Z,97161.66
2022-10-18T22:30:05.995Z,97154.22
2022-10-18T22:32:33.074Z,97126.72
2022-10-18T22:35:00.046Z,97141.50
2022-10-18T22:37:27.170Z,97264.81
2022-10-18T22:39:53.743Z,97147.94
2022-10-18T22:42:46.426Z,97339.41
2022-10-18T22:45:13.143Z,97303.94
2022-10-18T22:47:39.749Z,97139.06
2022-10-18T22:50:38.371Z,97340.50
2022-10-18T22:53:04.951Z,97124.72
2022-10-18T22:55:31.601Z,97129.09
2022-10-18T22:57:58.242Z,97187.59
2022-10-18T23:00:24.875Z,97033.66
2022-10-18T23:02:51.601Z,97137.41
2022-10-18T23:05:18.254Z,97180.41
2022-10-18T23:07:49.260Z,97193.78
2022-10-18T23:10:16.367Z,97177.03
2022-10-18T23:12:43.003Z,97368.06
2022-10-18T23:15:10.091Z,97184.94
2022-10-18T23:17:37.115Z,97132.69
2022-10-18T23:20:05.002Z,97020.38
2022-10-18T23:22:31.900Z,97184.63
2022-10-18T23:24:58.831Z,97213.00
2022-10-18T23:27:25.461Z,97200.75
2022-10-18T23:29:52.054Z,97122.00
2022-10-18T23:32:18.680Z,97107.59
2022-10-18T23:34:45.297Z,97088.88
2022-10-18T23:37:12.042Z,97326.78
2022-10-18T23:39:38.685Z,97168.91
2022-10-18T23:42:05.366Z,97244.22
2022-10-18T23:44:31.975Z,97329.25
2022-10-18T23:46:58.571Z,97141.47
2022-10-18T23:49:25.183Z,97113.88
2022-10-18T23:51:51.844Z,97280.53
2022-10-18T23:54:18.460Z,97340.91
2022-10-18T23:56:45.085Z,97187.44
2022-10-18T23:59:11.721Z,97371.78
